Time;durP1;ratioP1;P1;durP2;ratioP2;P2;SDS_P1;SDS_P2;PMS_P1;PMS_P2;Temp;Humidity;BMP_temperature;BMP_pressure;BME280_temperature;BME280_humidity;BME280_pressure;Samples;Min_cycle;Max_cycle;Signal;HPM_P1;HPM_P2
2022/07/31 00:01:29;;;;;;;6.75;1.70;;;20.20;69.80;;;;;;5052131;28;20223;-63
2022/07/31 00:03:55;;;;;;;3.00;2.28;;;20.20;69.90;;;;;;5052964;28;20216;-63
2022/07/31 00:06:20;;;;;;;23.38;14.70;;;20.20;70.40;;;;;;5052188;28;20253;-63
2022/07/31 00:08:48;;;;;;;7.85;5.18;;;20.20;70.50;;;;;;5052791;28;20173;-63
2022/07/31 00:11:13;;;;;;;8.90;6.68;;;20.20;70.80;;;;;;5051379;28;20178;-63
2022/07/31 00:13:39;;;;;;;11.73;6.88;;;20.20;70.90;;;;;;5052759;28;20173;-63
2022/07/31 00:16:04;;;;;;;5.40;3.10;;;20.10;70.90;;;;;;5051751;28;20184;-63
2022/07/31 00:18:31;;;;;;;2.42;2.22;;;20.10;71.00;;;;;;5052495;28;20366;-63
2022/07/31 00:20:57;;;;;;;7.90;2.13;;;20.00;71.10;;;;;;5049363;28;20185;-62
2022/07/31 00:23:22;;;;;;;3.10;2.35;;;20.00;71.50;;;;;;5051903;28;20237;-62
2022/07/31 00:25:48;;;;;;;2.72;2.00;;;19.90;71.50;;;;;;5051558;28;20169;-62
2022/07/31 00:28:13;;;;;;;2.20;2.00;;;19.90;71.50;;;;;;5052031;28;20173;-62
2022/07/31 00:30:39;;;;;;;2.05;1.90;;;19.80;71.50;;;;;;5051746;28;20177;-62
2022/07/31 00:33:04;;;;;;;5.28;2.33;;;19.70;71.30;;;;;;5051374;28;20177;-62
2022/07/31 00:35:30;;;;;;;2.30;1.85;;;19.70;71.80;;;;;;5051919;28;20652;-62
2022/07/31 00:37:55;;;;;;;5.55;2.17;;;19.60;72.10;;;;;;5033300;28;20214;-62
2022/07/31 00:40:21;;;;;;;3.80;2.45;;;19.60;72.00;;;;;;5046288;28;20185;-62
2022/07/31 00:42:46;;;;;;;2.75;1.90;;;19.50;72.30;;;;;;5051762;28;20177;-62
2022/07/31 00:45:12;;;;;;;3.60;2.10;;;19.40;72.30;;;;;;5049771;28;20637;-62
2022/07/31 00:47:37;;;;;;;3.33;2.20;;;19.30;71.70;;;;;;5052181;28;20181;-62
2022/07/31 00:50:03;;;;;;;3.00;2.00;;;19.30;72.10;;;;;;5051421;28;20196;-62
2022/07/31 00:52:29;;;;;;;2.83;2.08;;;19.20;72.80;;;;;;5051253;28;20190;-62
2022/07/31 00:54:54;;;;;;;2.13;1.92;;;19.20;74.30;;;;;;5051431;28;20177;-62
2022/07/31 00:57:20;;;;;;;2.50;2.05;;;19.20;74.10;;;;;;5051136;28;20304;-62
2022/07/31 00:59:45;;;;;;;2.00;1.90;;;19.20;74.30;;;;;;5051409;28;20209;-62
2022/07/31 01:02:11;;;;;;;2.10;1.98;;;19.20;74.70;;;;;;5051436;28;20213;-62
2022/07/31 01:04:37;;;;;;;4.93;1.85;;;19.10;75.00;;;;;;5051566;28;20225;-62
2022/07/31 01:07:02;;;;;;;2.20;1.95;;;19.10;75.10;;;;;;5051165;28;20197;-62
2022/07/31 01:09:28;;;;;;;2.40;2.20;;;19.10;75.20;;;;;;5051676;28;20174;-62
2022/07/31 01:12:06;;;;;;;3.85;2.33;;;19.00;75.70;;;;;;5051224;28;20259;-62
2022/07/31 01:14:37;;;;;;;4.78;2.55;;;19.00;75.50;;;;;;5051132;28;20213;-62
2022/07/31 01:17:06;;;;;;;2.83;2.20;;;18.90;76.30;;;;;;5051356;28;20247;-62
2022/07/31 01:19:40;;;;;;;2.22;1.98;;;18.80;75.70;;;;;;5051178;28;20274;-62
2022/07/31 01:22:31;;;;;;;2.97;2.25;;;18.80;76.40;;;;;;5050653;28;20180;-62
2022/07/31 01:25:08;;;;;;;2.42;2.10;;;18.70;76.40;;;;;;5051288;28;20174;-62
2022/07/31 01:28:03;;;;;;;3.67;2.25;;;18.70;76.30;;;;;;5047226;28;20185;-62
2022/07/31 01:30:34;;;;;;;2.60;2.28;;;18.70;76.50;;;;;;5050786;28;20247;-62
2022/07/31 01:33:08;;;;;;;2.60;2.35;;;18.60;77.10;;;;;;5053305;28;20181;-62
2022/07/31 01:35:47;;;;;;;3.95;2.30;;;18.50;77.70;;;;;;5055681;28;20208;-62
2022/07/31 01:38:23;;;;;;;3.88;2.05;;;18.50;77.70;;;;;;5055333;28;20600;-62
2022/07/31 01:41:01;;;;;;;2.28;2.15;;;18.50;78.10;;;;;;5054616;28;20176;-62
2022/07/31 01:43:36;;;;;;;2.20;2.00;;;18.50;78.30;;;;;;5054959;28;20224;-61
2022/07/31 01:46:03;;;;;;;2.53;2.00;;;18.50;78.10;;;;;;5055010;28;20176;-62
2022/07/31 01:48:31;;;;;;;2.35;2.03;;;18.50;78.50;;;;;;5055199;28;20177;-62
2022/07/31 01:50:58;;;;;;;2.50;2.30;;;18.40;78.90;;;;;;5054785;28;20230;-62
2022/07/31 01:53:25;;;;;;;4.43;3.17;;;18.40;79.20;;;;;;5054654;28;20193;-62
2022/07/31 01:55:54;;;;;;;3.83;2.67;;;18.40;79.50;;;;;;5055159;28;20646;-62
2022/07/31 01:58:21;;;;;;;3.15;2.22;;;18.40;79.90;;;;;;5054469;28;20216;-62
2022/07/31 02:00:49;;;;;;;2.70;2.20;;;18.30;80.10;;;;;;5053199;28;20196;-61
2022/07/31 02:03:16;;;;;;;2.42;2.17;;;18.30;80.40;;;;;;5055121;28;20231;-62
2022/07/31 02:05:43;;;;;;;4.82;2.58;;;18.30;80.80;;;;;;5054613;28;20633;-62
2022/07/31 02:08:10;;;;;;;2.65;2.00;;;18.30;81.10;;;;;;5054212;28;20189;-62
2022/07/31 02:10:37;;;;;;;3.13;2.10;;;18.20;81.00;;;;;;5054817;28;20239;-61
2022/07/31 02:13:04;;;;;;;3.00;2.58;;;18.10;81.40;;;;;;5053242;28;20184;-61
2022/07/31 02:15:31;;;;;;;2.40;2.20;;;18.10;82.30;;;;;;5054175;28;20170;-62
2022/07/31 02:17:58;;;;;;;4.70;2.40;;;18.00;82.60;;;;;;5054606;28;20225;-61
2022/07/31 02:20:25;;;;;;;2.50;2.30;;;18.00;83.30;;;;;;5053195;28;20675;-62
2022/07/31 02:22:51;;;;;;;3.42;2.53;;;17.90;83.50;;;;;;5053431;28;20762;-62
2022/07/31 02:25:17;;;;;;;2.50;2.30;;;17.90;83.90;;;;;;5054518;28;20257;-62
2022/07/31 02:27:44;;;;;;;4.88;2.30;;;17.90;84.10;;;;;;5054214;28;20606;-62
2022/07/31 02:30:10;;;;;;;2.80;2.50;;;17.90;84.60;;;;;;5053959;28;20185;-62
2022/07/31 02:32:36;;;;;;;4.50;2.75;;;17.90;84.80;;;;;;5054018;28;20177;-62
2022/07/31 02:35:04;;;;;;;5.25;3.28;;;17.80;85.00;;;;;;5054623;28;20597;-62
2022/07/31 02:37:32;;;;;;;4.85;2.88;;;17.80;84.80;;;;;;5053591;28;20216;-62
2022/07/31 02:40:00;;;;;;;5.07;2.67;;;17.80;85.00;;;;;;5053931;28;20170;-62
2022/07/31 02:42:27;;;;;;;4.38;2.58;;;17.80;85.50;;;;;;5054467;28;20173;-62
2022/07/31 02:44:54;;;;;;;3.00;2.10;;;17.90;85.70;;;;;;5053376;28;20185;-61
2022/07/31 02:47:20;;;;;;;2.38;2.17;;;17.80;85.90;;;;;;5053362;28;20186;-62
2022/07/31 02:49:46;;;;;;;2.75;2.30;;;17.70;86.30;;;;;;5053856;28;20181;-61
2022/07/31 02:52:12;;;;;;;2.83;2.30;;;17.70;86.90;;;;;;5053688;28;20178;-62
2022/07/31 02:54:39;;;;;;;3.78;2.50;;;17.60;88.10;;;;;;5053770;28;20190;-62
2022/07/31 02:57:06;;;;;;;3.30;2.22;;;17.60;88.70;;;;;;5053974;28;20205;-62
2022/07/31 02:59:36;;;;;;;5.15;2.58;;;17.60;89.40;;;;;;5045971;28;20196;-62
2022/07/31 03:02:02;;;;;;;3.10;2.30;;;17.70;89.70;;;;;;5050370;28;20195;-62
2022/07/31 03:04:28;;;;;;;2.60;2.40;;;17.60;90.00;;;;;;5053792;28;20189;-62
2022/07/31 03:06:54;;;;;;;2.50;2.30;;;17.60;90.20;;;;;;5053579;28;20541;-62
2022/07/31 03:09:20;;;;;;;2.95;2.20;;;17.60;90.60;;;;;;5053670;28;20264;-62
2022/07/31 03:11:45;;;;;;;3.88;2.40;;;17.50;90.70;;;;;;5054017;28;20268;-62
2022/07/31 03:14:12;;;;;;;4.45;2.28;;;17.50;90.90;;;;;;5052608;28;20174;-62
2022/07/31 03:16:39;;;;;;;3.30;2.20;;;17.50;91.20;;;;;;5053715;28;20193;-62
2022/07/31 03:19:07;;;;;;;2.33;2.05;;;17.50;91.60;;;;;;5052990;28;20205;-62
2022/07/31 03:21:33;;;;;;;2.20;2.10;;;17.40;91.80;;;;;;5053131;28;20181;-62
2022/07/31 03:24:00;;;;;;;2.33;2.10;;;17.50;92.10;;;;;;5053542;28;20274;-62
2022/07/31 03:26:27;;;;;;;2.42;2.13;;;17.40;92.30;;;;;;5053035;28;20189;-62
2022/07/31 03:28:53;;;;;;;2.85;2.40;;;17.40;92.40;;;;;;5051574;28;20553;-62
2022/07/31 03:31:19;;;;;;;2.47;2.28;;;17.40;92.60;;;;;;5052787;28;20174;-62
2022/07/31 03:33:45;;;;;;;2.42;2.22;;;17.40;92.90;;;;;;5051704;28;20188;-62
2022/07/31 03:36:11;;;;;;;3.50;2.40;;;17.30;93.00;;;;;;5052213;28;20182;-62
2022/07/31 03:38:37;;;;;;;2.65;2.45;;;17.30;93.30;;;;;;5052655;28;20228;-62
2022/07/31 03:41:03;;;;;;;3.58;2.50;;;17.20;93.60;;;;;;5052578;28;20555;-62
2022/07/31 03:43:30;;;;;;;2.40;2.20;;;17.20;94.10;;;;;;5051699;28;20181;-62
2022/07/31 03:45:58;;;;;;;4.82;2.63;;;17.20;94.20;;;;;;5052521;28;20221;-62
2022/07/31 03:48:24;;;;;;;3.42;2.53;;;17.20;94.40;;;;;;5052734;28;20185;-62
2022/07/31 03:50:50;;;;;;;2.45;2.25;;;17.20;94.50;;;;;;5052081;28;20197;-62
2022/07/31 03:53:16;;;;;;;2.90;2.42;;;17.20;94.70;;;;;;5054453;28;20194;-62
2022/07/31 03:55:43;;;;;;;2.33;2.13;;;17.20;94.70;;;;;;5051781;28;20178;-62
2022/07/31 03:58:09;;;;;;;2.58;2.38;;;17.20;95.00;;;;;;5052578;28;20216;-62
2022/07/31 04:00:35;;;;;;;4.80;2.63;;;17.20;95.10;;;;;;5052192;28;20181;-62
2022/07/31 04:03:08;;;;;;;7.38;4.60;;;17.20;95.40;;;;;;5052944;28;20184;-62
2022/07/31 04:05:34;;;;;;;4.70;4.00;;;17.20;95.70;;;;;;5052356;28;20599;-62
2022/07/31 04:08:00;;;;;;;4.00;2.80;;;17.20;95.80;;;;;;5052616;28;20213;-62
2022/07/31 04:10:26;;;;;;;7.13;3.25;;;17.20;95.90;;;;;;5052219;28;20216;-62
2022/07/31 04:12:52;;;;;;;3.03;2.65;;;17.20;96.00;;;;;;5052490;28;20586;-61
2022/07/31 04:15:17;;;;;;;3.92;2.78;;;17.20;96.10;;;;;;5052264;28;20266;-62
2022/07/31 04:17:43;;;;;;;2.92;2.47;;;17.20;96.00;;;;;;5052382;28;20208;-61
2022/07/31 04:20:10;;;;;;;3.17;2.35;;;17.30;96.10;;;;;;5051871;28;20641;-62
2022/07/31 04:22:36;;;;;;;2.67;2.47;;;17.30;96.00;;;;;;5051744;28;20255;-61
2022/07/31 04:25:02;;;;;;;2.40;2.20;;;17.30;96.00;;;;;;5051663;28;20260;-62
2022/07/31 04:27:28;;;;;;;2.92;2.65;;;17.40;95.90;;;;;;5052273;28;20180;-62
2022/07/31 04:29:55;;;;;;;2.78;2.58;;;17.40;96.00;;;;;;5051826;28;20264;-61
2022/07/31 04:32:21;;;;;;;2.70;2.50;;;17.50;96.10;;;;;;5052072;28;20208;-62
2022/07/31 04:34:46;;;;;;;3.13;2.45;;;17.60;96.10;;;;;;5052107;28;20216;-62
2022/07/31 04:37:12;;;;;;;3.22;2.70;;;17.60;96.00;;;;;;5051615;28;20213;-61
2022/07/31 04:39:37;;;;;;;3.13;2.50;;;17.80;95.90;;;;;;5051358;28;20178;-62
2022/07/31 04:42:04;;;;;;;3.70;2.40;;;17.90;95.90;;;;;;5052105;28;20208;-62
2022/07/31 04:44:30;;;;;;;4.50;2.47;;;18.00;95.80;;;;;;5051165;28;20177;-61
2022/07/31 04:47:04;;;;;;;3.38;2.20;;;18.10;95.50;;;;;;5051543;28;20180;-61
2022/07/31 04:49:31;;;;;;;2.85;2.20;;;18.30;95.20;;;;;;5051641;28;20609;-62
2022/07/31 04:52:00;;;;;;;4.03;2.20;;;18.50;95.10;;;;;;5051510;28;20325;-62
2022/07/31 04:54:26;;;;;;;2.40;2.20;;;18.80;94.70;;;;;;5051725;28;20188;-62
2022/07/31 04:56:51;;;;;;;4.30;2.38;;;19.10;94.20;;;;;;5051420;28;20178;-62
2022/07/31 04:59:19;;;;;;;4.70;2.40;;;19.50;93.60;;;;;;5049278;28;20190;-62
2022/07/31 05:01:46;;;;;;;4.25;2.30;;;19.80;92.80;;;;;;5050872;28;20181;-62
2022/07/31 05:04:12;;;;;;;2.60;2.10;;;20.10;92.00;;;;;;5051318;28;20186;-62
2022/07/31 05:06:46;;;;;;;4.28;2.38;;;20.20;91.10;;;;;;5050499;28;20323;-62
2022/07/31 05:09:14;;;;;;;2.90;2.17;;;20.20;90.80;;;;;;5049993;28;20619;-62
2022/07/31 05:11:40;;;;;;;2.78;2.17;;;20.20;90.50;;;;;;5044370;28;20181;-62
2022/07/31 05:14:07;;;;;;;3.42;2.20;;;20.10;90.50;;;;;;5051560;28;20201;-62
2022/07/31 05:16:34;;;;;;;4.55;2.30;;;20.00;90.60;;;;;;5050964;28;20220;-62
2022/07/31 05:19:00;;;;;;;2.65;2.03;;;19.90;90.80;;;;;;5051007;28;20221;-62
2022/07/31 05:21:26;;;;;;;2.63;2.20;;;19.90;91.00;;;;;;5050576;28;20184;-62
2022/07/31 05:23:53;;;;;;;2.78;2.17;;;19.80;91.20;;;;;;5051224;28;20221;-62
2022/07/31 05:26:19;;;;;;;3.60;2.42;;;19.80;91.40;;;;;;5051230;28;20239;-62
2022/07/31 05:28:45;;;;;;;3.40;2.47;;;19.70;91.40;;;;;;5051493;28;20185;-62
2022/07/31 05:31:11;;;;;;;5.38;2.40;;;19.70;91.60;;;;;;5050999;28;20174;-61
2022/07/31 05:33:37;;;;;;;2.13;1.98;;;19.60;92.10;;;;;;5050999;28;21702;-61
2022/07/31 05:36:04;;;;;;;2.90;2.28;;;19.70;92.20;;;;;;5049883;28;20189;-61
2022/07/31 05:38:29;;;;;;;2.40;2.00;;;19.80;92.30;;;;;;5050757;28;20223;-61
2022/07/31 05:40:55;;;;;;;2.50;2.10;;;19.90;92.20;;;;;;5051029;28;20268;-61
2022/07/31 05:43:20;;;;;;;2.78;2.42;;;20.00;92.20;;;;;;5051241;28;20181;-61
2022/07/31 05:45:46;;;;;;;9.60;5.65;;;20.00;92.00;;;;;;5050787;28;20173;-61
2022/07/31 05:48:15;;;;;;;8.13;4.32;;;20.10;91.80;;;;;;5051333;28;20185;-61
2022/07/31 05:50:42;;;;;;;37.70;24.48;;;20.20;91.40;;;;;;5050442;28;20177;-60
2022/07/31 05:53:10;;;;;;;16.83;11.57;;;20.30;91.30;;;;;;5050697;28;20326;-60
2022/07/31 05:55:36;;;;;;;6.05;4.15;;;20.30;91.30;;;;;;5050615;28;20193;-62
2022/07/31 05:58:02;;;;;;;5.85;3.72;;;20.40;91.30;;;;;;5050529;28;20278;-62
2022/07/31 06:00:29;;;;;;;4.38;3.40;;;20.60;91.30;;;;;;5050344;28;20256;-62
2022/07/31 06:02:55;;;;;;;3.05;2.80;;;20.70;91.10;;;;;;5051273;28;20189;-58
2022/07/31 06:05:21;;;;;;;4.32;2.63;;;20.80;90.90;;;;;;5050883;28;20529;-60
2022/07/31 06:07:46;;;;;;;3.85;2.15;;;20.90;91.00;;;;;;5050762;28;20184;-61
2022/07/31 06:10:12;;;;;;;3.65;2.50;;;21.00;90.70;;;;;;5050612;28;20186;-62
2022/07/31 06:12:37;;;;;;;4.25;2.70;;;21.10;90.80;;;;;;5050325;28;20185;-61
2022/07/31 06:15:03;;;;;;;2.42;2.20;;;21.30;90.90;;;;;;5050829;28;20227;-60
2022/07/31 06:17:29;;;;;;;57.35;39.13;;;21.40;90.70;;;;;;5050473;28;20253;-59
2022/07/31 06:19:54;;;;;;;263.48;134.38;;;21.40;90.70;;;;;;5053932;28;20220;-59
2022/07/31 06:22:20;;;;;;;52.45;32.25;;;21.50;90.70;;;;;;5054110;28;20217;-61
2022/07/31 06:24:45;;;;;;;15.15;10.32;;;21.60;90.70;;;;;;5054682;28;20181;-61
2022/07/31 06:27:11;;;;;;;7.07;4.72;;;21.70;90.40;;;;;;5054119;28;20177;-62
2022/07/31 06:29:36;;;;;;;3.17;2.40;;;21.70;90.40;;;;;;5053204;28;20234;-61
2022/07/31 06:32:02;;;;;;;2.80;2.60;;;21.70;90.40;;;;;;5053840;28;20200;-61
2022/07/31 06:34:27;;;;;;;5.57;2.40;;;21.60;90.20;;;;;;5054943;28;20201;-59
2022/07/31 06:36:53;;;;;;;2.97;2.72;;;21.60;90.20;;;;;;5053886;28;20185;-60
2022/07/31 06:39:18;;;;;;;66.60;37.40;;;21.70;90.10;;;;;;5053881;28;20223;-60
2022/07/31 06:41:45;;;;;;;19.17;12.23;;;21.70;90.20;;;;;;5053926;28;20178;-60
2022/07/31 06:44:12;;;;;;;7.72;5.50;;;21.80;90.30;;;;;;5054387;28;20235;-60
2022/07/31 06:46:38;;;;;;;2.88;2.45;;;21.80;90.30;;;;;;5054560;28;20523;-59
2022/07/31 06:49:04;;;;;;;9.25;6.75;;;21.80;89.80;;;;;;5054230;28;20211;-60
2022/07/31 06:51:29;;;;;;;4.82;4.07;;;21.90;89.30;;;;;;5054051;28;20188;-59
2022/07/31 06:53:55;;;;;;;3.35;2.13;;;21.90;89.20;;;;;;5054215;28;20545;-59
2022/07/31 06:56:21;;;;;;;2.42;2.22;;;22.00;89.40;;;;;;5053883;28;20173;-58
2022/07/31 06:58:47;;;;;;;6.85;4.18;;;22.10;89.50;;;;;;5054124;28;20212;-59
2022/07/31 07:01:12;;;;;;;35.45;22.23;;;22.20;89.10;;;;;;5053360;28;20174;-59
2022/07/31 07:03:38;;;;;;;11.10;6.32;;;22.30;89.10;;;;;;5053969;28;20201;-60
2022/07/31 07:06:04;;;;;;;5.72;4.35;;;22.40;89.00;;;;;;5053317;28;20656;-59
2022/07/31 07:08:29;;;;;;;6.28;4.30;;;22.60;88.80;;;;;;5053493;28;20185;-59
2022/07/31 07:10:55;;;;;;;8.75;3.72;;;22.70;88.30;;;;;;5053663;28;20192;-59
2022/07/31 07:13:20;;;;;;;3.53;2.78;;;22.80;87.10;;;;;;5053720;28;20534;-59
2022/07/31 07:15:46;;;;;;;4.70;2.60;;;22.90;87.10;;;;;;5053395;28;20181;-59
2022/07/31 07:18:11;;;;;;;2.35;2.00;;;23.00;86.90;;;;;;5053439;28;20224;-58
2022/07/31 07:20:37;;;;;;;2.42;2.20;;;23.10;86.10;;;;;;5053310;28;20217;-58
2022/07/31 07:23:03;;;;;;;3.05;2.30;;;23.30;86.20;;;;;;5052821;28;20225;-58
2022/07/31 07:25:29;;;;;;;5.00;2.38;;;23.40;85.80;;;;;;5053514;28;20182;-58
2022/07/31 07:27:55;;;;;;;2.53;2.33;;;23.60;85.70;;;;;;5052938;28;20272;-58
2022/07/31 07:30:21;;;;;;;2.55;2.15;;;23.80;83.90;;;;;;5050835;28;20299;-58
2022/07/31 07:32:47;;;;;;;2.60;2.40;;;24.00;83.10;;;;;;5053287;28;20188;-58
2022/07/31 07:35:13;;;;;;;2.63;2.33;;;24.20;82.30;;;;;;5053536;28;20170;-58
2022/07/31 07:37:39;;;;;;;4.40;2.13;;;24.40;81.90;;;;;;5053276;28;20227;-58
2022/07/31 07:40:07;;;;;;;6.28;2.10;;;24.60;79.50;;;;;;5053393;28;20208;-58
2022/07/31 07:42:32;;;;;;;2.17;2.00;;;24.90;77.60;;;;;;5053265;28;20181;-58
2022/07/31 07:44:58;;;;;;;2.22;2.03;;;25.30;75.40;;;;;;5053294;28;20174;-58
2022/07/31 07:47:24;;;;;;;12.73;3.20;;;25.50;74.30;;;;;;5053063;28;20268;-58
2022/07/31 07:49:49;;;;;;;3.15;2.22;;;25.70;72.00;;;;;;5053314;28;20177;-58
2022/07/31 07:52:15;;;;;;;4.05;1.88;;;25.90;70.90;;;;;;5052854;28;20186;-58
2022/07/31 07:54:42;;;;;;;2.03;1.83;;;26.20;68.70;;;;;;5053262;28;20253;-58
2022/07/31 07:57:08;;;;;;;2.72;1.90;;;26.30;67.90;;;;;;5052664;28;20264;-58
2022/07/31 07:59:34;;;;;;;2.42;1.70;;;26.40;67.20;;;;;;5052429;28;20189;-58
2022/07/31 08:01:59;;;;;;;3.08;1.75;;;26.60;67.40;;;;;;5052655;28;20199;-59
2022/07/31 08:04:25;;;;;;;2.17;1.80;;;26.70;67.50;;;;;;5052846;28;20243;-59
2022/07/31 08:06:51;;;;;;;1.83;1.73;;;26.90;66.00;;;;;;5052782;28;20181;-58
2022/07/31 08:09:16;;;;;;;2.38;1.75;;;27.20;65.80;;;;;;5052852;28;20181;-59
2022/07/31 08:11:42;;;;;;;2.50;1.60;;;27.60;63.90;;;;;;5052575;28;20235;-58
2022/07/31 08:14:08;;;;;;;2.10;1.90;;;28.20;64.30;;;;;;5052461;28;20958;-59
2022/07/31 08:16:33;;;;;;;2.30;1.40;;;28.70;63.30;;;;;;5052537;28;20189;-59
2022/07/31 08:18:59;;;;;;;2.05;1.80;;;29.40;60.00;;;;;;5052325;28;20259;-59
2022/07/31 08:21:25;;;;;;;4.15;2.00;;;30.10;58.40;;;;;;5052687;28;20226;-59
2022/07/31 08:23:51;;;;;;;2.00;1.50;;;30.80;56.80;;;;;;5052062;28;20229;-59
2022/07/31 08:26:17;;;;;;;2.28;1.40;;;31.20;55.00;;;;;;5052569;28;20184;-59
2022/07/31 08:28:43;;;;;;;2.47;1.88;;;31.70;54.30;;;;;;5052162;28;20182;-59
2022/07/31 08:31:09;;;;;;;1.80;1.70;;;32.20;52.40;;;;;;5052434;28;20326;-59
2022/07/31 08:33:34;;;;;;;2.17;1.50;;;32.70;50.90;;;;;;5052141;28;20260;-58
2022/07/31 08:36:00;;;;;;;1.70;1.60;;;32.90;49.40;;;;;;5051960;28;20303;-59
2022/07/31 08:38:26;;;;;;;4.28;1.50;;;33.10;50.20;;;;;;5052116;28;20213;-59
2022/07/31 08:40:52;;;;;;;4.70;1.60;;;32.90;48.70;;;;;;5051626;28;20181;-59
2022/07/31 08:43:17;;;;;;;1.67;1.58;;;32.90;50.10;;;;;;5055273;28;20193;-59
2022/07/31 08:45:44;;;;;;;1.45;1.35;;;32.20;49.60;;;;;;5052226;28;20268;-59
2022/07/31 08:48:10;;;;;;;2.15;1.70;;;31.70;50.00;;;;;;5052028;28;20192;-59
2022/07/31 08:50:39;;;;;;;2.20;1.50;;;31.40;52.20;;;;;;5071489;28;20185;-59
2022/07/31 08:53:06;;;;;;;2.78;1.70;;;31.20;52.00;;;;;;5058463;28;20695;-59
2022/07/31 08:55:32;;;;;;;1.60;1.50;;;31.00;51.10;;;;;;5072383;28;20204;-59
2022/07/31 08:57:58;;;;;;;1.70;1.50;;;30.90;52.40;;;;;;5061893;28;20205;-59
2022/07/31 09:00:24;;;;;;;1.70;1.60;;;31.20;51.90;;;;;;5051801;28;20186;-60
2022/07/31 09:02:51;;;;;;;2.65;1.50;;;31.90;51.90;;;;;;5051680;28;20184;-60
2022/07/31 09:05:19;;;;;;;4.25;2.00;;;32.30;50.50;;;;;;5051262;28;20186;-59
2022/07/31 09:07:44;;;;;;;5.18;3.20;;;32.40;50.30;;;;;;5051229;28;20169;-59
2022/07/31 09:10:20;;;;;;;3.83;2.15;;;32.00;49.50;;;;;;5051340;28;20285;-60
2022/07/31 09:12:46;;;;;;;10.02;6.85;;;31.70;49.40;;;;;;5051019;28;20185;-59
2022/07/31 09:15:26;;;;;;;2.63;2.40;;;31.60;50.40;;;;;;5050822;28;20269;-59
2022/07/31 09:17:52;;;;;;;7.93;5.63;;;31.60;50.70;;;;;;5051622;28;20213;-59
2022/07/31 09:20:23;;;;;;;3.33;2.13;;;31.50;50.30;;;;;;5050908;28;20232;-59
2022/07/31 09:23:09;;;;;;;5.93;2.67;;;31.40;50.20;;;;;;5051047;28;20223;-59
2022/07/31 09:25:34;;;;;;;3.28;1.98;;;31.30;50.30;;;;;;5051149;28;20192;-59
2022/07/31 09:28:05;;;;;;;2.08;1.80;;;31.00;50.70;;;;;;5051379;28;20181;-60
2022/07/31 09:30:31;;;;;;;3.70;1.67;;;30.80;50.80;;;;;;5050892;28;20663;-59
2022/07/31 09:33:12;;;;;;;1.98;1.67;;;30.80;51.80;;;;;;5051475;28;20189;-59
2022/07/31 09:35:49;;;;;;;2.55;1.80;;;31.00;51.00;;;;;;5051193;28;20208;-60
2022/07/31 09:38:15;;;;;;;1.52;1.42;;;31.40;51.70;;;;;;5050808;28;20213;-60
2022/07/31 09:40:42;;;;;;;3.38;1.63;;;31.60;50.20;;;;;;5051281;28;20272;-59
2022/07/31 09:43:18;;;;;;;1.65;1.45;;;31.90;50.20;;;;;;5051549;28;20185;-60
2022/07/31 09:46:00;;;;;;;2.55;1.40;;;32.10;49.30;;;;;;5049691;28;20526;-59
2022/07/31 09:48:25;;;;;;;1.60;1.50;;;32.50;49.70;;;;;;5050956;28;20260;-60
2022/07/31 09:50:58;;;;;;;1.95;1.20;;;33.00;49.10;;;;;;5050658;28;20208;-60
2022/07/31 09:53:25;;;;;;;1.58;1.42;;;33.60;47.50;;;;;;5053389;28;20212;-60
2022/07/31 09:55:53;;;;;;;1.67;1.40;;;34.00;46.80;;;;;;5055065;28;20603;-60
2022/07/31 09:58:19;;;;;;;1.42;1.35;;;34.50;47.60;;;;;;5055122;28;20217;-60
2022/07/31 10:00:46;;;;;;;1.40;1.30;;;34.60;45.60;;;;;;5054302;28;20655;-60
2022/07/31 10:03:13;;;;;;;1.08;1.08;;;34.50;46.40;;;;;;5054901;28;20192;-60
2022/07/31 10:05:41;;;;;;;2.13;1.35;;;34.70;46.70;;;;;;5054707;28;20180;-60
2022/07/31 10:08:08;;;;;;;2.45;1.38;;;34.70;44.90;;;;;;5054135;28;20192;-60
2022/07/31 10:10:35;;;;;;;4.03;1.42;;;34.80;44.10;;;;;;5054891;28;20178;-60
2022/07/31 10:13:07;;;;;;;3.22;1.73;;;34.10;44.70;;;;;;5054421;28;20192;-60
2022/07/31 10:15:35;;;;;;;2.08;1.40;;;33.80;45.30;;;;;;5054654;28;20174;-60
2022/07/31 10:18:02;;;;;;;2.17;1.50;;;33.60;45.50;;;;;;5054214;28;20213;-60
2022/07/31 10:20:31;;;;;;;1.98;1.40;;;33.60;46.00;;;;;;5054529;28;20212;-60
2022/07/31 10:23:07;;;;;;;2.47;1.30;;;33.80;45.80;;;;;;5053892;28;20250;-60
2022/07/31 10:25:37;;;;;;;1.30;1.20;;;33.80;45.70;;;;;;5054628;28;20184;-60
2022/07/31 10:28:06;;;;;;;3.08;1.35;;;33.90;44.30;;;;;;5054730;28;20544;-60
2022/07/31 10:30:31;;;;;;;1.90;1.58;;;34.10;44.60;;;;;;5054645;28;20181;-60
2022/07/31 10:32:58;;;;;;;1.40;1.30;;;34.00;44.00;;;;;;5054455;28;20211;-60
2022/07/31 10:35:24;;;;;;;3.30;1.40;;;34.10;45.10;;;;;;5055462;28;20174;-61
2022/07/31 10:38:19;;;;;;;1.33;1.20;;;34.30;43.90;;;;;;5066970;28;20212;-60
2022/07/31 10:40:51;;;;;;;2.35;1.30;;;34.10;44.20;;;;;;5074134;28;20273;-60
2022/07/31 10:43:42;;;;;;;1.83;1.60;;;33.80;44.50;;;;;;5054378;28;20656;-60
2022/07/31 10:46:08;;;;;;;1.20;1.20;;;33.60;45.30;;;;;;5053967;28;20185;-59
2022/07/31 10:48:33;;;;;;;3.03;1.33;;;33.80;44.30;;;;;;5054452;28;20184;-60
2022/07/31 10:51:11;;;;;;;1.42;1.23;;;33.90;44.40;;;;;;5054497;28;20185;-63
2022/07/31 10:53:37;;;;;;;2.75;1.50;;;34.10;43.50;;;;;;5054156;28;20177;-63
2022/07/31 10:56:11;;;;;;;1.50;1.40;;;34.30;43.60;;;;;;5055099;28;20181;-63
2022/07/31 10:58:50;;;;;;;2.00;1.13;;;34.50;43.30;;;;;;5053899;28;20746;-63
2022/07/31 11:01:16;;;;;;;2.03;1.40;;;34.30;42.40;;;;;;5053753;28;20191;-62
2022/07/31 11:03:45;;;;;;;3.33;1.48;;;34.20;42.50;;;;;;5033687;28;20190;-63
2022/07/31 11:06:15;;;;;;;2.05;1.20;;;34.20;42.40;;;;;;5044968;28;20169;-61
2022/07/31 11:08:51;;;;;;;4.40;1.50;;;34.30;42.30;;;;;;5054194;28;20185;-63
2022/07/31 11:11:17;;;;;;;1.63;1.30;;;34.40;42.60;;;;;;5053708;28;20640;-63
2022/07/31 11:13:54;;;;;;;1.33;1.23;;;34.60;42.60;;;;;;5053914;28;20193;-63
2022/07/31 11:16:21;;;;;;;1.40;1.30;;;34.80;41.90;;;;;;5045004;28;20281;-63
2022/07/31 11:19:02;;;;;;;2.72;1.58;;;35.10;42.30;;;;;;5052413;28;20572;-63
2022/07/31 11:21:39;;;;;;;1.30;1.20;;;35.50;42.40;;;;;;5045514;28;20272;-63
2022/07/31 11:24:20;;;;;;;3.08;1.40;;;35.50;41.70;;;;;;5035049;28;20232;-63
2022/07/31 11:26:54;;;;;;;2.65;1.50;;;35.60;41.30;;;;;;5052459;28;20231;-63
2022/07/31 11:29:31;;;;;;;4.57;1.77;;;35.20;40.50;;;;;;5053359;28;20181;-62
2022/07/31 11:32:15;;;;;;;1.58;1.42;;;34.50;41.00;;;;;;5053233;28;20206;-63
2022/07/31 11:34:47;;;;;;;6.20;4.05;;;34.00;41.70;;;;;;5053530;28;20181;-63
2022/07/31 11:37:25;;;;;;;2.95;1.92;;;33.60;42.00;;;;;;5055516;28;20686;-63
2022/07/31 11:39:52;;;;;;;2.25;1.60;;;33.30;42.70;;;;;;5053776;28;20185;-63
2022/07/31 11:42:20;;;;;;;2.13;1.35;;;33.10;43.70;;;;;;5053108;28;20590;-63
2022/07/31 11:44:45;;;;;;;2.03;1.30;;;32.90;44.20;;;;;;5053222;28;20364;-63
2022/07/31 11:47:11;;;;;;;1.70;1.60;;;32.70;44.30;;;;;;5053143;28;20712;-63
2022/07/31 11:49:37;;;;;;;1.52;1.42;;;32.50;44.70;;;;;;5052953;28;20179;-63
2022/07/31 11:52:06;;;;;;;3.97;2.17;;;32.90;45.10;;;;;;5052541;28;20190;-63
2022/07/31 11:54:32;;;;;;;1.80;1.40;;;33.30;44.40;;;;;;5052680;28;20582;-64
2022/07/31 11:56:58;;;;;;;1.80;1.23;;;33.70;43.60;;;;;;5052700;28;20190;-63
2022/07/31 11:59:35;;;;;;;4.03;1.50;;;34.10;43.30;;;;;;5052304;28;20213;-64
2022/07/31 12:02:11;;;;;;;3.20;1.40;;;34.40;42.10;;;;;;5053130;28;20196;-64
2022/07/31 12:04:38;;;;;;;3.17;1.60;;;34.60;42.40;;;;;;5052483;28;20277;-63
2022/07/31 12:07:05;;;;;;;1.48;1.40;;;34.80;42.00;;;;;;5052298;28;20185;-64
2022/07/31 12:09:32;;;;;;;3.78;1.48;;;34.90;42.20;;;;;;5052746;28;20275;-63
2022/07/31 12:11:59;;;;;;;2.00;1.38;;;34.90;42.10;;;;;;5051482;28;20246;-63
2022/07/31 12:14:33;;;;;;;2.17;1.30;;;34.60;42.10;;;;;;5060939;28;20588;-64
2022/07/31 12:17:00;;;;;;;2.63;2.10;;;34.30;42.50;;;;;;5053802;28;20183;-63
2022/07/31 12:19:33;;;;;;;2.45;1.95;;;33.70;42.20;;;;;;5068072;28;20187;-63
2022/07/31 12:21:59;;;;;;;4.15;3.03;;;33.20;43.50;;;;;;5063490;28;20272;-63
2022/07/31 12:24:26;;;;;;;2.88;2.15;;;33.30;44.00;;;;;;5052443;28;20229;-63
2022/07/31 12:26:58;;;;;;;2.95;1.40;;;33.40;43.50;;;;;;5052192;28;20181;-63
2022/07/31 12:29:36;;;;;;;3.00;1.50;;;33.50;43.40;;;;;;5052217;28;20189;-63
2022/07/31 12:32:04;;;;;;;6.95;2.75;;;33.20;43.40;;;;;;5062572;28;20234;-64
2022/07/31 12:34:38;;;;;;;6.82;5.07;;;33.40;44.00;;;;;;5052720;28;20188;-64
2022/07/31 12:37:12;;;;;;;2.22;1.60;;;33.80;43.80;;;;;;5051656;28;20205;-63
2022/07/31 12:39:50;;;;;;;4.00;1.63;;;33.70;43.10;;;;;;5052322;28;20608;-63
2022/07/31 12:42:24;;;;;;;3.40;1.52;;;33.10;43.20;;;;;;5050828;28;20580;-63
2022/07/31 12:44:51;;;;;;;1.45;1.35;;;32.90;44.30;;;;;;5052450;28;20201;-64
2022/07/31 12:47:30;;;;;;;1.92;1.38;;;33.30;45.30;;;;;;5051683;28;20186;-64
2022/07/31 12:49:57;;;;;;;1.45;1.33;;;33.50;44.30;;;;;;5055186;28;20591;-63